Time;durP1;ratioP1;P1;durP2;ratioP2;P2;SDS_P1;SDS_P2;PMS_P1;PMS_P2;Temp;Humidity;BMP_temperature;BMP_pressure;BME280_temperature;BME280_humidity;BME280_pressure;Samples;Min_cycle;Max_cycle;Signal;HPM_P1;HPM_P2
2022/08/18 00:01:12;;;;;;;14.50;13.00;;;;;;;20.33;79.14;100143.06;90121;1270;87328;-59
2022/08/18 00:03:31;;;;;;;14.80;13.30;;;;;;;20.32;79.17;100144.44;90065;1270;94839;-59
2022/08/18 00:05:40;;;;;;;14.50;12.80;;;;;;;20.30;79.34;100142.88;90095;1270;82250;-59
2022/08/18 00:07:49;;;;;;;14.40;12.90;;;;;;;20.24;79.39;100145.33;90103;1271;81095;-59
2022/08/18 00:09:58;;;;;;;12.90;11.70;;;;;;;20.19;79.38;100143.39;90098;1272;98730;-59
2022/08/18 00:12:14;;;;;;;16.70;13.00;;;;;;;20.13;79.49;100140.25;90126;1271;87284;-59
2022/08/18 00:14:23;;;;;;;15.50;13.10;;;;;;;20.06;79.54;100145.66;90086;1270;94968;-59
2022/08/18 00:16:32;;;;;;;14.20;12.80;;;;;;;20.05;79.64;100155.46;90068;1272;80521;-59
2022/08/18 00:18:41;;;;;;;14.90;13.30;;;;;;;20.04;79.88;100157.98;90104;1270;82624;-59
2022/08/18 00:20:49;;;;;;;14.90;13.40;;;;;;;20.06;79.83;100162.73;90055;1271;98056;-59
2022/08/18 00:22:58;;;;;;;14.70;13.00;;;;;;;20.03;79.82;100164.55;90129;1272;87682;-59
2022/08/18 00:25:10;;;;;;;14.70;12.50;;;;;;;20.03;79.78;100167.56;90088;1270;93538;-59
2022/08/18 00:27:21;;;;;;;14.10;12.60;;;;;;;20.00;79.60;100174.10;90076;1271;81407;-59
2022/08/18 00:29:30;;;;;;;15.00;12.70;;;;;;;19.97;79.83;100176.10;90095;1271;80541;-59
2022/08/18 00:31:39;;;;;;;14.60;13.30;;;;;;;19.94;79.81;100182.71;90101;1270;97908;-59
2022/08/18 00:33:47;;;;;;;14.50;11.50;;;;;;;19.92;79.87;100186.41;90101;1271;87600;-59
2022/08/18 00:35:56;;;;;;;14.70;13.20;;;;;;;19.89;79.97;100186.81;90093;1271;94271;-59
2022/08/18 00:38:07;;;;;;;14.30;12.50;;;;;;;19.87;79.92;100192.21;90070;1272;79389;-59
2022/08/18 00:40:20;;;;;;;14.90;13.20;;;;;;;19.85;80.06;100191.04;90126;1270;82655;-59
2022/08/18 00:42:31;;;;;;;14.60;13.10;;;;;;;19.83;79.98;100199.29;90100;1272;99044;-59
2022/08/18 00:44:40;;;;;;;14.60;13.30;;;;;;;19.79;79.94;100200.83;90081;1271;88916;-59
2022/08/18 00:46:49;;;;;;;15.30;12.90;;;;;;;19.73;80.19;100200.85;90101;1270;95307;-59
2022/08/18 00:48:58;;;;;;;14.70;13.10;;;;;;;19.73;80.16;100202.55;90089;1271;80939;-59
2022/08/18 00:51:12;;;;;;;17.70;14.10;;;;;;;19.73;80.00;100210.02;90096;1270;81418;-59
2022/08/18 00:53:26;;;;;;;16.50;13.40;;;;;;;19.70;80.23;100205.81;90064;1270;98508;-59
2022/08/18 00:55:35;;;;;;;14.50;13.00;;;;;;;19.66;80.30;100208.16;90112;1271;88171;-59
2022/08/18 00:57:47;;;;;;;14.30;13.00;;;;;;;19.61;80.26;100203.50;90084;1272;94180;-59
2022/08/18 01:00:06;;;;;;;14.10;12.80;;;;;;;19.62;80.64;100208.11;90051;1271;81517;-59
2022/08/18 01:02:23;;;;;;;14.40;13.00;;;;;;;19.64;80.52;100204.02;90099;1272;82333;-59
2022/08/18 01:04:39;;;;;;;14.80;13.40;;;;;;;19.68;80.45;100204.90;90113;1271;99296;-59
2022/08/18 01:06:53;;;;;;;14.10;12.70;;;;;;;19.70;80.44;100206.73;90084;1271;87274;-59
2022/08/18 01:09:02;;;;;;;15.00;12.40;;;;;;;19.70;80.34;100206.48;90096;1271;94419;-59
2022/08/18 01:11:11;;;;;;;14.80;13.20;;;;;;;19.70;80.40;100218.14;90080;1271;81687;-59
2022/08/18 01:13:20;;;;;;;14.70;13.10;;;;;;;19.67;80.41;100215.30;90104;1270;82880;-59
2022/08/18 01:15:29;;;;;;;14.70;13.20;;;;;;;19.62;80.55;100216.55;90093;1271;99768;-59
2022/08/18 01:22:43;;;;;;;15.30;13.90;;;;;;;19.48;80.52;100228.56;90073;1272;81049;-59
2022/08/18 01:27:22;;;;;;;14.50;13.10;;;;;;;19.41;80.75;100228.47;90109;1270;99326;-60
2022/08/18 01:29:35;;;;;;;15.50;12.90;;;;;;;19.38;80.71;100224.34;90096;1271;88430;-60
2022/08/18 01:31:50;;;;;;;15.00;13.70;;;;;;;19.36;80.70;100225.41;90078;1271;93752;-59
2022/08/18 01:33:59;;;;;;;15.00;13.50;;;;;;;19.35;80.83;100228.13;90066;1271;80263;-59
2022/08/18 01:36:15;;;;;;;15.70;13.10;;;;;;;19.31;80.73;100229.39;90126;1271;83034;-59
2022/08/18 01:38:25;;;;;;;15.70;13.10;;;;;;;19.29;80.68;100229.67;90086;1270;98237;-59
2022/08/18 01:40:33;;;;;;;14.70;12.50;;;;;;;19.27;80.84;100228.82;90120;1271;88667;-59
2022/08/18 01:42:44;;;;;;;14.50;13.00;;;;;;;19.25;80.82;100232.06;90097;1271;94136;-59
2022/08/18 01:44:54;;;;;;;14.50;13.10;;;;;;;19.23;80.93;100236.70;90069;1270;79380;-59
2022/08/18 01:47:02;;;;;;;14.50;13.00;;;;;;;19.22;80.76;100237.95;90135;1271;82987;-59
2022/08/18 01:49:12;;;;;;;14.20;12.80;;;;;;;19.17;80.98;100238.04;90127;1271;98966;-59
2022/08/18 01:51:21;;;;;;;15.60;13.00;;;;;;;19.16;80.98;100245.02;90125;1270;88617;-59
2022/08/18 01:53:30;;;;;;;13.80;12.50;;;;;;;19.12;81.08;100244.63;90104;1270;95088;-59
2022/08/18 01:55:42;;;;;;;14.50;13.10;;;;;;;19.07;80.96;100242.70;90109;1270;81549;-59
2022/08/18 01:57:50;;;;;;;15.30;13.80;;;;;;;19.06;81.01;100239.34;90123;1270;81390;-59
2022/08/18 01:59:59;;;;;;;14.40;13.00;;;;;;;19.04;81.09;100237.48;90112;1270;98801;-59
2022/08/18 02:02:09;;;;;;;16.10;13.20;;;;;;;19.04;81.13;100237.42;90116;1270;87981;-59
2022/08/18 02:04:18;;;;;;;14.80;13.00;;;;;;;19.05;81.15;100233.56;90122;1270;94686;-59
2022/08/18 02:06:27;;;;;;;13.10;11.80;;;;;;;19.05;81.14;100229.22;90111;1270;79910;-59
2022/08/18 02:08:37;;;;;;;15.50;13.30;;;;;;;19.03;81.43;100229.64;90110;1271;80795;-59
2022/08/18 02:10:45;;;;;;;14.70;13.20;;;;;;;19.03;81.56;100228.80;90114;1270;99868;-59
2022/08/18 02:12:54;;;;;;;14.30;13.00;;;;;;;19.02;81.48;100226.10;90109;1271;87256;-59
2022/08/18 02:15:03;;;;;;;14.40;12.60;;;;;;;19.00;81.48;100227.06;90110;1271;94104;-59
2022/08/18 02:17:14;;;;;;;14.00;12.60;;;;;;;18.99;81.47;100231.31;90098;1271;81685;-60
2022/08/18 02:19:22;;;;;;;14.20;12.80;;;;;;;18.99;81.45;100235.98;90148;1270;82471;-60
2022/08/18 02:21:31;;;;;;;14.90;13.30;;;;;;;18.98;81.41;100239.23;90105;1270;98795;-59
2022/08/18 02:23:41;;;;;;;16.00;13.80;;;;;;;18.98;81.47;100235.67;90108;1270;88620;-59
2022/08/18 02:25:50;;;;;;;15.50;13.80;;;;;;;18.96;81.48;100234.77;90109;1270;94303;-59
2022/08/18 02:27:59;;;;;;;14.70;13.20;;;;;;;18.93;81.48;100234.10;90078;1270;82091;-59
2022/08/18 02:30:14;;;;;;;15.00;13.50;;;;;;;18.90;81.52;100237.89;90127;1270;82899;-59
2022/08/18 02:32:22;;;;;;;15.90;12.30;;;;;;;18.87;81.48;100236.31;90122;1271;98487;-59
2022/08/18 02:34:31;;;;;;;15.30;13.70;;;;;;;18.88;81.63;100241.52;90105;1270;88070;-59
2022/08/18 02:36:39;;;;;;;16.30;14.20;;;;;;;18.88;81.55;100237.31;90096;1270;94548;-59
2022/08/18 02:38:48;;;;;;;14.60;13.20;;;;;;;18.83;81.61;100237.83;90087;1271;82434;-59
2022/08/18 02:41:01;;;;;;;14.50;13.10;;;;;;;18.74;81.64;100242.42;90132;1270;81452;-59
2022/08/18 02:43:12;;;;;;;16.10;13.50;;;;;;;18.72;81.68;100239.88;90136;1270;97674;-59
2022/08/18 02:45:22;;;;;;;15.10;13.70;;;;;;;18.72;81.80;100238.40;90122;1271;88111;-59
2022/08/18 02:47:31;;;;;;;15.30;13.80;;;;;;;18.71;81.71;100242.50;90118;1270;95036;-59
2022/08/18 02:49:40;;;;;;;16.40;14.40;;;;;;;18.66;81.68;100241.63;90097;1270;81710;-59
2022/08/18 02:51:49;;;;;;;15.60;14.00;;;;;;;18.61;81.72;100237.31;90119;1270;81539;-59
2022/08/18 02:53:59;;;;;;;14.40;12.80;;;;;;;18.61;81.71;100233.70;90124;1271;98579;-59
2022/08/18 02:56:20;;;;;;;14.60;13.10;;;;;;;18.61;81.78;100233.31;90115;1271;86932;-59
2022/08/18 02:58:30;;;;;;;13.40;12.00;;;;;;;18.62;81.84;100241.11;90118;1270;94551;-59
2022/08/18 03:00:38;;;;;;;14.60;13.10;;;;;;;18.59;82.04;100240.67;90097;1271;81584;-59
2022/08/18 03:02:52;;;;;;;16.10;14.40;;;;;;;18.58;82.08;100242.35;90131;1271;81397;-59
2022/08/18 03:05:01;;;;;;;16.30;14.60;;;;;;;18.59;82.18;100239.30;90112;1270;97082;-59
2022/08/18 03:07:10;;;;;;;16.70;15.00;;;;;;;18.60;82.27;100232.05;90128;1270;88798;-59
2022/08/18 03:09:20;;;;;;;14.90;13.40;;;;;;;18.63;82.36;100236.48;90085;1272;94054;-59
2022/08/18 03:11:30;;;;;;;17.50;15.40;;;;;;;18.64;82.32;100232.56;90091;1271;81465;-59
2022/08/18 03:13:39;;;;;;;15.10;13.30;;;;;;;18.63;82.33;100231.71;90121;1271;81729;-59
2022/08/18 03:15:48;;;;;;;17.90;15.50;;;;;;;18.61;82.33;100235.41;90118;1270;98448;-59
2022/08/18 03:17:57;;;;;;;15.80;14.20;;;;;;;18.59;82.30;100231.15;90119;1270;87838;-59
2022/08/18 03:20:07;;;;;;;22.70;15.40;;;;;;;18.59;82.44;100230.23;90087;1271;95093;-59
2022/08/18 03:22:16;;;;;;;20.70;16.30;;;;;;;18.62;82.52;100232.58;90099;1271;79374;-59
2022/08/18 03:24:25;;;;;;;21.00;15.50;;;;;;;18.59;82.71;100229.83;90124;1271;81654;-59
2022/08/18 03:26:35;;;;;;;18.80;15.60;;;;;;;18.61;82.66;100233.27;90107;1270;98269;-59
2022/08/18 03:28:46;;;;;;;17.40;13.80;;;;;;;18.63;82.53;100235.27;90118;1271;88125;-59
2022/08/18 03:30:55;;;;;;;18.80;15.00;;;;;;;18.64;82.47;100240.73;90115;1270;93402;-59
2022/08/18 03:33:04;;;;;;;18.20;15.10;;;;;;;18.65;82.62;100240.24;90070;1271;82164;-60
2022/08/18 03:35:13;;;;;;;16.40;14.50;;;;;;;18.63;82.61;100239.65;90104;1270;82111;-60
2022/08/18 03:37:22;;;;;;;18.50;15.20;;;;;;;18.63;82.53;100242.77;90093;1270;99372;-60
2022/08/18 03:39:31;;;;;;;17.10;14.80;;;;;;;18.65;82.47;100246.48;90095;1270;88632;-60
2022/08/18 03:41:43;;;;;;;20.60;15.00;;;;;;;18.67;82.54;100250.08;90095;1271;94928;-59
2022/08/18 03:43:53;;;;;;;15.20;13.60;;;;;;;18.71;82.45;100252.06;90087;1270;81257;-59
2022/08/18 03:46:08;;;;;;;15.50;14.00;;;;;;;18.74;82.48;100254.30;90113;1270;82112;-59
2022/08/18 03:48:17;;;;;;;17.10;14.40;;;;;;;18.75;82.54;100257.83;89670;1271;559850;-59
2022/08/18 03:50:27;;;;;;;15.80;14.20;;;;;;;18.76;82.52;100254.56;90115;1270;86241;-60
2022/08/18 03:52:37;;;;;;;16.20;14.30;;;;;;;18.76;82.60;100252.20;90099;1270;93182;-59
2022/08/18 03:54:45;;;;;;;17.30;13.70;;;;;;;18.79;82.61;100245.52;90079;1271;80248;-59
2022/08/18 03:56:54;;;;;;;14.80;13.30;;;;;;;18.83;82.55;100249.77;90130;1272;82461;-59
2022/08/18 03:59:07;;;;;;;16.10;13.90;;;;;;;18.89;82.52;100247.95;90092;1271;98638;-60
2022/08/18 04:01:18;;;;;;;15.30;13.80;;;;;;;18.95;82.56;100248.88;90105;1270;88092;-60
2022/08/18 04:03:27;;;;;;;19.80;15.50;;;;;;;18.99;82.53;100248.19;90099;1271;95372;-60
2022/08/18 04:05:41;;;;;;;19.30;15.60;;;;;;;19.07;82.59;100245.80;90090;1270;82117;-60
2022/08/18 04:07:49;;;;;;;16.00;14.40;;;;;;;19.16;82.56;100244.91;90109;1271;80400;-60
2022/08/18 04:09:58;;;;;;;16.30;14.50;;;;;;;19.26;82.55;100241.77;90115;1270;98823;-60
2022/08/18 04:12:12;;;;;;;16.10;14.30;;;;;;;19.36;82.56;100241.35;90101;1271;88580;-60
2022/08/18 04:14:24;;;;;;;16.30;14.60;;;;;;;19.44;82.56;100237.60;90072;1271;93977;-60
2022/08/18 04:16:35;;;;;;;17.50;13.60;;;;;;;19.49;82.57;100237.41;90106;1270;82020;-60
2022/08/18 04:18:44;;;;;;;17.10;15.20;;;;;;;19.56;82.53;100234.66;90006;1272;83054;-60
2022/08/18 04:20:53;;;;;;;16.70;15.10;;;;;;;19.66;82.61;100238.26;90126;1272;98565;-60
2022/08/18 04:23:02;;;;;;;19.20;15.90;;;;;;;19.78;82.75;100239.36;90110;1271;88735;-60
2022/08/18 04:25:11;;;;;;;18.30;16.00;;;;;;;19.87;82.62;100244.59;90064;1270;93439;-60
2022/08/18 04:27:21;;;;;;;18.00;16.10;;;;;;;19.98;82.60;100247.58;90104;1271;82354;-60
2022/08/18 04:29:30;;;;;;;18.90;16.60;;;;;;;20.09;82.62;100247.77;90111;1271;82951;-60
2022/08/18 04:31:40;;;;;;;18.20;16.00;;;;;;;20.20;82.77;100248.78;90132;1270;98297;-60
2022/08/18 04:33:48;;;;;;;18.60;15.70;;;;;;;20.34;82.62;100246.58;90106;1270;86917;-60
2022/08/18 04:35:57;;;;;;;19.00;16.70;;;;;;;20.47;82.61;100246.13;90126;1271;94133;-60
2022/08/18 04:38:06;;;;;;;18.50;16.60;;;;;;;20.59;82.65;100251.02;90085;1270;81472;-60
2022/08/18 04:40:15;;;;;;;16.50;14.80;;;;;;;20.93;82.48;100258.52;90110;1270;82709;-60
2022/08/18 04:42:24;;;;;;;16.20;14.40;;;;;;;21.59;82.12;100253.90;90107;1271;97647;-60
2022/08/18 04:44:33;;;;;;;15.90;14.40;;;;;;;22.78;81.47;100253.33;90110;1271;87620;-60
2022/08/18 04:46:46;;;;;;;15.40;13.90;;;;;;;24.08;79.88;100255.21;90090;1271;94055;-60
2022/08/18 04:48:58;;;;;;;16.20;14.50;;;;;;;25.28;78.54;100256.64;90103;1272;79796;-60
2022/08/18 04:51:13;;;;;;;15.30;13.80;;;;;;;26.37;76.98;100249.48;90150;1272;80418;-60
2022/08/18 04:55:53;;;;;;;14.80;13.30;;;;;;;28.18;74.35;100250.21;90134;1271;89299;-60
2022/08/18 04:58:02;;;;;;;14.50;13.00;;;;;;;28.87;72.55;100252.13;90083;1272;93480;-60
2022/08/18 05:00:12;;;;;;;15.50;13.00;;;;;;;29.35;70.98;100251.95;90102;1272;79754;-58
2022/08/18 05:02:22;;;;;;;13.70;12.50;;;;;;;29.92;69.66;100249.06;90118;1272;82993;-59
2022/08/18 05:04:31;;;;;;;13.90;12.60;;;;;;;30.42;68.52;100247.97;90119;1272;98554;-59
2022/08/18 05:06:41;;;;;;;13.30;12.10;;;;;;;30.57;66.51;100245.59;90129;1272;87525;-59
2022/08/18 05:08:50;;;;;;;12.90;11.70;;;;;;;30.25;65.52;100246.50;90091;1271;94687;-59
2022/08/18 05:10:59;;;;;;;13.60;12.40;;;;;;;29.98;64.48;100247.02;90089;1270;79448;-59
2022/08/18 05:13:08;;;;;;;16.20;14.20;;;;;;;29.32;64.14;100246.66;90127;1270;82989;-59
2022/08/18 05:15:17;;;;;;;17.20;15.40;;;;;;;28.59;64.52;100249.52;90116;1271;98068;-59
2022/08/18 05:17:27;;;;;;;17.50;15.40;;;;;;;28.21;64.83;100249.96;90129;1271;87644;-59
2022/08/18 05:19:36;;;;;;;17.20;15.50;;;;;;;27.75;65.00;100250.17;90087;1270;94876;-59
2022/08/18 05:21:44;;;;;;;17.70;15.80;;;;;;;27.51;65.48;100252.49;90104;1271;80075;-59
2022/08/18 05:23:53;;;;;;;18.90;15.70;;;;;;;27.53;65.95;100255.01;90123;1272;82021;-59
2022/08/18 05:26:03;;;;;;;16.60;15.00;;;;;;;28.03;65.23;100250.75;90113;1272;99508;-59
2022/08/18 05:28:13;;;;;;;18.20;16.50;;;;;;;28.51;64.84;100251.52;90108;1270;87547;-59
2022/08/18 05:30:22;;;;;;;18.80;16.20;;;;;;;29.17;64.10;100253.18;90111;1270;95716;-59
2022/08/18 05:32:36;;;;;;;17.10;14.10;;;;;;;29.96;62.81;100255.63;90110;1270;80539;-59
2022/08/18 05:34:47;;;;;;;22.80;16.50;;;;;;;30.84;62.22;100250.77;90130;1270;82677;-59
2022/08/18 05:37:12;;;;;;;18.30;14.30;;;;;;;32.05;61.12;100254.41;90138;1270;98766;-59
2022/08/18 05:39:28;;;;;;;23.80;16.20;;;;;;;32.86;59.81;100252.65;90116;1270;88036;-59
2022/08/18 05:41:40;;;;;;;18.90;16.90;;;;;;;33.62;58.44;100257.11;90107;1271;94639;-59
2022/08/18 05:43:49;;;;;;;17.80;16.00;;;;;;;34.45;56.96;100254.43;90097;1271;80337;-59
2022/08/18 05:46:00;;;;;;;17.60;16.00;;;;;;;34.67;55.40;100257.27;90120;1270;82077;-59
2022/08/18 05:48:09;;;;;;;19.90;16.10;;;;;;;35.22;54.64;100254.77;90116;1270;100052;-59
2022/08/18 05:50:20;;;;;;;16.50;14.60;;;;;;;35.55;53.93;100254.84;90146;1271;88824;-59
2022/08/18 05:52:37;;;;;;;16.70;14.40;;;;;;;36.16;52.98;100257.54;90085;1271;95222;-59
2022/08/18 05:57:21;;;;;;;18.30;13.60;;;;;;;37.01;50.59;100253.13;90161;1270;81238;-61
2022/08/18 05:59:35;;;;;;;16.40;13.90;;;;;;;37.32;49.78;100249.05;90127;1271;99093;-61
2022/08/18 06:01:51;;;;;;;19.00;14.30;;;;;;;37.60;49.16;100248.35;90126;1271;88805;-60
2022/08/18 06:04:08;;;;;;;14.80;13.20;;;;;;;37.48;48.51;100248.27;90085;1270;95655;-60
2022/08/18 06:06:22;;;;;;;15.40;13.50;;;;;;;37.35;47.36;100247.17;90089;1271;79685;-60
2022/08/18 06:08:40;;;;;;;16.40;13.40;;;;;;;37.63;46.95;100246.23;90134;1270;82750;-60
2022/08/18 06:10:51;;;;;;;13.80;12.30;;;;;;;38.09;46.56;100249.66;90113;1271;97898;-60
2022/08/18 06:13:02;;;;;;;17.00;13.10;;;;;;;38.51;45.71;100247.27;90021;1273;88535;-59
2022/08/18 06:15:16;;;;;;;15.10;12.20;;;;;;;38.98;44.74;100247.34;90106;1270;94349;-59
2022/08/18 06:17:57;;;;;;;16.40;12.60;;;;;;;39.31;44.15;100248.33;90102;1271;80087;-59
2022/08/18 06:20:14;;;;;;;13.30;11.90;;;;;;;39.84;43.18;100246.77;90136;1270;81981;-59
2022/08/18 06:22:35;;;;;;;15.20;13.20;;;;;;;39.94;42.74;100247.91;90111;1270;99754;-60
2022/08/18 06:24:53;;;;;;;13.90;12.50;;;;;;;40.01;41.79;100252.34;90144;1270;88634;-60
2022/08/18 06:27:13;;;;;;;13.70;10.70;;;;;;;40.03;41.57;100255.45;90106;1271;94901;-59
2022/08/18 06:29:46;;;;;;;13.00;11.60;;;;;;;40.25;41.37;100256.14;90090;1270;80169;-59
2022/08/18 06:32:10;;;;;;;14.70;12.40;;;;;;;40.45;40.73;100252.25;90141;1270;82880;-60
2022/08/18 06:34:32;;;;;;;14.20;11.70;;;;;;;40.57;40.06;100252.59;90122;1270;99398;-60
2022/08/18 06:36:58;;;;;;;12.60;10.70;;;;;;;40.59;39.53;100250.82;90100;1271;88971;-60
2022/08/18 06:39:29;;;;;;;12.20;10.40;;;;;;;40.84;38.69;100253.16;90092;1271;94834;-60
2022/08/18 06:41:43;;;;;;;12.90;11.30;;;;;;;41.03;38.09;100258.63;90116;1270;80325;-60
2022/08/18 06:44:04;;;;;;;12.70;11.40;;;;;;;40.95;37.78;100261.83;90133;1270;80950;-60
2022/08/18 06:46:22;;;;;;;10.10;9.00;;;;;;;41.29;36.63;100260.60;90103;1270;99933;-60
2022/08/18 06:48:40;;;;;;;11.10;10.00;;;;;;;41.43;36.38;100262.52;90131;1271;89059;-60
2022/08/18 06:50:56;;;;;;;11.90;10.40;;;;;;;41.65;35.55;100259.91;90116;1271;94187;-60
2022/08/18 06:53:08;;;;;;;12.00;10.90;;;;;;;41.65;35.01;100263.81;90090;1271;78036;-60
2022/08/18 06:55:32;;;;;;;13.00;10.30;;;;;;;41.86;34.60;100265.82;90150;1271;83015;-60
2022/08/18 06:57:56;;;;;;;11.70;10.30;;;;;;;41.34;34.72;100263.61;90110;1271;99307;-60
2022/08/18 07:00:20;;;;;;;12.00;10.70;;;;;;;41.30;34.01;100264.09;90115;1272;88952;-60
2022/08/18 07:02:47;;;;;;;12.50;11.30;;;;;;;41.07;33.85;100266.65;90108;1270;92738;-60
2022/08/18 07:05:09;;;;;;;11.40;10.40;;;;;;;40.32;34.05;100268.55;90107;1270;80457;-60
2022/08/18 07:07:33;;;;;;;12.50;9.50;;;;;;;39.64;34.93;100268.05;90140;1271;81843;-60
2022/08/18 07:09:42;;;;;;;11.40;9.90;;;;;;;39.21;35.27;100275.98;90097;1272;98294;-60
2022/08/18 07:12:06;;;;;;;9.80;9.00;;;;;;;38.83;35.29;100270.08;90131;1272;88108;-60
2022/08/18 07:14:24;;;;;;;11.40;10.30;;;;;;;39.06;35.47;100276.11;90097;1271;95134;-60
2022/08/18 07:16:36;;;;;;;9.60;8.60;;;;;;;38.99;35.55;100280.31;90108;1272;78731;-60
2022/08/18 07:18:45;;;;;;;10.90;9.00;;;;;;;39.75;35.10;100276.65;90114;1272;82344;-61
2022/08/18 07:20:59;;;;;;;8.80;8.00;;;;;;;40.30;34.43;100281.08;90131;1271;97918;-60
2022/08/18 07:23:08;;;;;;;11.00;7.70;;;;;;;40.63;34.41;100285.01;90107;1271;88612;-60
2022/08/18 07:25:25;;;;;;;8.20;7.40;;;;;;;40.95;33.98;100281.33;90082;1272;95052;-60
2022/08/18 07:27:50;;;;;;;10.80;8.30;;;;;;;41.19;33.20;100275.14;90108;1271;80102;-60
2022/08/18 07:30:10;;;;;;;8.30;7.10;;;;;;;41.50;32.31;100276.17;90027;1273;81718;-60
2022/08/18 07:32:23;;;;;;;8.30;6.40;;;;;;;41.63;32.06;100281.72;90110;1272;98803;-61
2022/08/18 07:34:39;;;;;;;7.50;6.80;;;;;;;41.77;31.40;100275.36;90096;1272;88837;-61
2022/08/18 07:36:54;;;;;;;6.90;5.80;;;;;;;41.76;31.14;100267.17;90096;1272;95255;-61
2022/08/18 07:39:14;;;;;;;7.60;6.80;;;;;;;41.94;31.15;100270.52;90067;1272;79565;-61
2022/08/18 07:41:32;;;;;;;10.00;7.60;;;;;;;41.96;30.99;100268.17;90123;1272;82646;-61
2022/08/18 07:43:53;;;;;;;8.10;6.50;;;;;;;41.76;31.19;100271.79;90132;1272;99973;-60
2022/08/18 07:46:13;;;;;;;8.20;7.30;;;;;;;41.62;31.36;100270.70;90113;1271;88786;-60
2022/08/18 07:48:29;;;;;;;10.40;7.30;;;;;;;41.70;31.06;100263.09;90110;1271;94120;-60
2022/08/18 07:50:56;;;;;;;10.20;7.30;;;;;;;41.71;31.02;100272.19;90103;1271;78801;-61
2022/08/18 07:53:12;;;;;;;8.40;6.20;;;;;;;41.60;31.57;100271.41;90123;1271;83047;-61
2022/08/18 07:55:30;;;;;;;6.90;6.20;;;;;;;41.88;30.71;100271.74;90118;1271;98820;-61
2022/08/18 07:57:54;;;;;;;8.60;6.00;;;;;;;41.72;30.53;100271.13;90123;1272;88124;-60
2022/08/18 08:00:20;;;;;;;6.90;5.80;;;;;;;41.79;30.55;100270.34;90092;1272;95473;-60
2022/08/18 08:02:46;;;;;;;7.80;6.40;;;;;;;41.80;30.45;100271.15;90096;1272;78326;-60
2022/08/18 08:05:07;;;;;;;7.90;6.80;;;;;;;41.69;30.07;100274.36;90111;1272;81635;-60
2022/08/18 08:07:21;;;;;;;8.20;6.80;;;;;;;41.55;29.76;100275.20;90129;1272;100048;-61
2022/08/18 08:09:41;;;;;;;8.90;6.20;;;;;;;41.25;29.48;100271.52;90119;1272;88107;-61
2022/08/18 08:11:56;;;;;;;7.20;6.10;;;;;;;41.02;29.78;100273.44;90106;1271;95155;-61
2022/08/18 08:14:22;;;;;;;7.30;6.50;;;;;;;41.03;30.18;100277.33;90092;1272;80444;-61
2022/08/18 08:16:44;;;;;;;8.60;7.00;;;;;;;41.06;30.20;100282.37;90127;1271;81973;-61
2022/08/18 08:19:03;;;;;;;8.00;6.30;;;;;;;41.13;30.16;100285.96;90089;1272;98771;-61
2022/08/18 08:21:18;;;;;;;7.40;6.60;;;;;;;41.05;30.35;100290.55;90107;1271;89164;-60
2022/08/18 08:23:35;;;;;;;7.40;6.50;;;;;;;41.10;30.33;100286.85;90089;1272;92873;-60
2022/08/18 08:25:55;;;;;;;8.30;6.10;;;;;;;41.14;30.43;100282.81;90056;1271;81205;-60
2022/08/18 08:28:15;;;;;;;8.70;6.40;;;;;;;41.09;30.48;100284.00;90112;1271;81786;-60
2022/08/18 08:30:33;;;;;;;8.40;6.70;;;;;;;41.08;30.37;100282.62;90087;1271;99104;-60
2022/08/18 08:32:58;;;;;;;6.60;5.80;;;;;;;41.24;30.49;100287.30;90099;1272;87679;-60
2022/08/18 08:35:14;;;;;;;7.00;6.20;;;;;;;41.30;30.24;100290.11;90067;1272;95314;-59
2022/08/18 08:37:30;;;;;;;8.50;6.50;;;;;;;41.16;30.21;100288.48;90080;1272;80724;-59
2022/08/18 08:39:45;;;;;;;8.30;5.70;;;;;;;40.81;30.42;100291.02;90115;1271;82547;-59
2022/08/18 08:41:59;;;;;;;9.40;6.20;;;;;;;40.72;30.63;100292.51;90132;1271;99531;-59
2022/08/18 08:44:13;;;;;;;9.00;7.20;;;;;;;40.62;30.53;100296.72;90113;1271;88122;-59
2022/08/18 08:46:28;;;;;;;7.90;6.20;;;;;;;40.50;29.51;100294.14;90080;1271;95636;-60
2022/08/18 08:48:43;;;;;;;7.00;6.10;;;;;;;40.24;30.20;100290.09;90105;1272;79929;-60
2022/08/18 08:50:58;;;;;;;9.70;6.50;;;;;;;40.38;29.86;100291.90;90108;1272;81406;-60
2022/08/18 08:53:17;;;;;;;9.40;6.10;;;;;;;40.38;30.00;100288.83;90118;1271;99554;-60
2022/08/18 08:55:31;;;;;;;6.50;6.00;;;;;;;40.05;30.45;100289.58;90109;1272;89238;-60
2022/08/18 08:57:48;;;;;;;7.10;6.30;;;;;;;40.07;30.35;100286.45;90094;1272;93374;-60
2022/08/18 08:59:58;;;;;;;7.80;6.60;;;;;;;40.07;30.42;100286.55;90049;1272;79968;-60
2022/08/18 09:02:32;;;;;;;7.00;6.10;;;;;;;40.29;30.36;100280.59;90101;1272;82821;-60
2022/08/18 09:04:53;;;;;;;6.50;5.80;;;;;;;40.37;30.86;100280.34;90109;1272;99221;-60
2022/08/18 09:07:27;;;;;;;6.80;5.80;;;;;;;40.47;30.77;100273.94;90109;1272;88339;-60
2022/08/18 09:10:04;;;;;;;7.50;5.80;;;;;;;40.42;30.54;100270.66;90087;1271;94191;-60
2022/08/18 09:12:59;;;;;;;6.50;5.90;;;;;;;40.27;30.40;100270.30;90009;1272;80195;-59
2022/08/18 09:15:48;;;;;;;7.60;6.20;;;;;;;39.69;30.51;100267.29;90132;1271;82278;-59
2022/08/18 09:18:30;;;;;;;8.30;6.70;;;;;;;39.55;30.46;100264.05;90097;1272;97279;-60
2022/08/18 09:20:53;;;;;;;10.40;6.70;;;;;;;39.22;31.11;100264.23;90109;1272;87524;-59
2022/08/18 09:23:08;;;;;;;6.80;5.70;;;;;;;39.22;31.34;100259.38;90087;1272;94970;-59
2022/08/18 09:25:44;;;;;;;8.10;6.30;;;;;;;38.97;31.27;100261.05;90081;1272;79405;-59
2022/08/18 09:28:11;;;;;;;7.30;6.20;;;;;;;38.56;31.67;100257.14;90107;1272;80808;-59
2022/08/18 09:30:46;;;;;;;8.10;6.20;;;;;;;38.42;31.89;100266.52;90100;1272;99503;-59
2022/08/18 09:33:13;;;;;;;7.90;6.40;;;;;;;38.03;32.19;100254.38;90090;1270;88967;-60
2022/08/18 09:35:37;;;;;;;8.00;6.70;;;;;;;37.26;32.60;100248.52;90075;1272;94148;-60
2022/08/18 09:43:13;;;;;;;9.50;6.20;;;;;;;36.69;34.59;100251.22;89884;1276;98881;-59
2022/08/18 09:46:03;;;;;;;9.30;7.40;;;;;;;36.56;34.32;100248.19;90054;1272;88137;-59
2022/08/18 09:48:34;;;;;;;13.50;7.60;;;;;;;35.99;34.81;100249.05;90064;1271;94714;-59
2022/08/18 09:51:19;;;;;;;9.50;7.30;;;;;;;35.83;34.50;100252.10;90062;1272;79210;-59
2022/08/18 09:54:19;;;;;;;9.00;7.10;;;;;;;35.63;35.09;100249.28;90104;1272;82154;-60
2022/08/18 09:57:18;;;;;;;7.90;7.10;;;;;;;35.47;35.19;100245.22;90145;1272;97129;-59
2022/08/18 10:00:26;;;;;;;9.30;6.50;;;;;;;35.44;35.27;100245.70;90125;1272;88177;-59
2022/08/18 10:03:29;;;;;;;9.70;7.10;;;;;;;35.09;35.93;100247.73;90105;1272;94268;-59
2022/08/18 10:05:39;;;;;;;8.40;7.10;;;;;;;34.80;36.02;100247.48;89991;1272;80223;-59
2022/08/18 10:07:52;;;;;;;8.60;7.20;;;;;;;34.61;35.97;100249.70;90131;1271;81605;-59
2022/08/18 10:10:23;;;;;;;7.30;6.60;;;;;;;34.51;35.97;100251.27;90120;1272;99098;-59
2022/08/18 10:12:56;;;;;;;8.80;7.00;;;;;;;34.50;36.04;100250.99;90134;1272;88818;-59
2022/08/18 10:15:32;;;;;;;8.60;7.60;;;;;;;34.32;36.32;100253.65;90080;1271;93315;-60
2022/08/18 10:18:08;;;;;;;8.40;7.00;;;;;;;34.35;36.47;100252.93;90093;1271;79549;-60
2022/08/18 10:20:39;;;;;;;9.50;7.60;;;;;;;34.25;37.14;100249.57;90111;1271;81757;-60
2022/08/18 10:22:50;;;;;;;6.70;6.00;;;;;;;34.34;37.23;100249.94;90118;1272;100135;-59
2022/08/18 10:24:59;;;;;;;7.60;6.90;;;;;;;34.42;37.12;100249.55;90149;1272;87895;-59
2022/08/18 10:27:13;;;;;;;11.10;7.00;;;;;;;34.27;37.39;100246.80;90111;1271;94086;-62
2022/08/18 10:29:56;;;;;;;9.50;6.40;;;;;;;34.23;36.82;100247.08;90108;1272;81168;-60
2022/08/18 10:32:45;;;;;;;7.40;6.60;;;;;;;34.08;37.39;100252.09;90139;1271;82092;-60
2022/08/18 10:34:56;;;;;;;7.60;6.20;;;;;;;34.25;37.56;100250.76;90119;1272;98944;-60
2022/08/18 10:37:12;;;;;;;6.60;5.80;;;;;;;34.26;37.47;100254.73;90106;1272;86822;-60
2022/08/18 10:39:24;;;;;;;6.70;5.90;;;;;;;34.04;37.68;100256.61;90107;1272;95101;-60